Forecasts are only available for sites displaying the forecast symbol.

Some water levels are actually in metres AHD (Australian Height Datum), click individual sites for more details.

Scroll for more >

River gauges, storages, and weirs in the Murray–Darling Basin

Type Location Riversort descending Water level Flow Volume Release Water temp Salinity Rainfall
River Gauge Rochester Campaspe 1.69 m 25/06/2019 5:45 69 ML/Day 25/06/2019 5:45 Not measured Not measured 7.9°C 25/06/2019 5:45 573.0 μS/cm 25/06/2019 5:45 0.2 mm 24/06/2019 9:00 Full data
River Gauge Wilcania Darling 0.44 m 25/06/2019 5:45 227 ML/Day 25/06/2019 5:45 Not measured Not measured 10.4°C 25/06/2019 5:45 1134.5 μS/cm 25/06/2019 5:45 Not measured Full data
Storage Menindee Lakes Darling Not measured Not measured 16 GL 24/06/2019 7:45 Not measured Not measured Not measured Not measured Full data
River Gauge Weir 32 Upstream Darling 0.95 m 25/06/2019 5:45 1 ML/Day 25/06/2019 5:45 Not measured Not measured 9.9°C 25/06/2019 5:45 1318.6 μS/cm 25/06/2019 5:45 Not measured Full data
River Gauge Burtundy Darling 0.5 m 25/06/2019 6:15 1 ML/Day 25/06/2019 6:15 Not measured Not measured 6.9°C 25/06/2019 6:15 7.3 μS/cm 9/04/2019 15:15 Not measured Full data
River Gauge McCoy Bridge Goulburn 1.48 m 25/06/2019 5:45 959 ML/Day 25/06/2019 5:45 Not measured Not measured 7.6°C 25/06/2019 5:45 88.2 μS/cm 25/06/2019 5:45 Not measured Full data
River Gauge Bandiana Kiewa 1.72 m 25/06/2019 5:45 1534 ML/Day 25/06/2019 5:45 Not measured Not measured 5.5°C 25/06/2019 5:45 29.8 μS/cm 25/06/2019 5:45 Not measured Full data
River Gauge Kerang Loddon 0.4 m 25/06/2019 5:45 262 ML/Day 25/06/2019 5:45 Not measured Not measured 8.0°C 25/06/2019 5:45 134.6 μS/cm 25/06/2019 5:45 Not measured Full data
River Gauge Hinnomunjie Mitta 0.87 m 25/06/2019 5:45 869 ML/Day 25/06/2019 5:45 Not measured Not measured 2.8°C 25/06/2019 5:45 32.2 μS/cm 25/06/2019 5:45 0.2 mm 24/06/2019 9:00 Full data
Storage Dartmouth Dam Mitta 462.02 m 25/06/2019 6:15 Not measured 2473 GL 25/06/2019 6:15 Not measured Not measured Not measured Not measured Full data
River Gauge Colemans Mitta 2.02 m 25/06/2019 6:15 3529 ML/Day 25/06/2019 6:15 Not measured Not measured 9.5°C 25/06/2019 5:45 41.1 μS/cm 25/06/2019 5:45 Not measured Full data
River Gauge Tallandoon Mitta 2.4 m 25/06/2019 5:45 3753 ML/Day 25/06/2019 5:45 Not measured Not measured 8.5°C 25/06/2019 5:45 39.3 μS/cm 25/06/2019 5:45 Not measured Full data
River Gauge Barmah Choke Murray 1.9 m 25/06/2019 5:45 4651 ML/Day 25/06/2019 5:45 Not measured Not measured Not measured Not measured Not measured Full data
River Gauge Redcliffs Murray Not measured Not measured Not measured Not measured Not measured 110.3 μS/cm 25/06/2019 5:45 Not measured Full data
River Gauge Biggara Murray 0.47 m 25/06/2019 6:30 554 ML/Day 25/06/2019 6:30 Not measured Not measured 2.5°C 25/06/2019 6:30 42.2 μS/cm 25/06/2019 6:30 0.0 mm 24/06/2019 9:00 Full data
River Gauge Bringenbrong Bridge Murray 1.92 m 25/06/2019 6:30 6677 ML/Day 25/06/2019 6:30 Not measured Not measured Not measured Not measured Not measured Full data
River Gauge Pinegrove Murray 1.14 m 25/06/2019 6:30 267 ML/Day 25/06/2019 6:30 Not measured Not measured 2.9°C 25/06/2019 6:30 75.8 μS/cm 25/06/2019 6:30 0.2 mm 24/06/2019 9:00 Full data
River Gauge Jingellic Murray 2.19 m 25/06/2019 5:45 8807 ML/Day 25/06/2019 5:45 Not measured Not measured 5.0°C 25/06/2019 5:45 34.3 μS/cm 25/06/2019 5:45 0.0 mm 24/06/2019 9:00 Full data
Storage Hume Dam Murray 175.72 m 25/06/2019 6:30 Not measured 689 GL 25/06/2019 6:30 3110.0 ML/d24/06/2019 8:00 Not measured Not measured 0.0 mm 24/06/2019 9:00 Full data
River Gauge Doctors Point Murray 2.03 m 25/06/2019 6:30 4471 ML/Day 25/06/2019 6:30 Not measured Not measured 9.0°C 25/06/2019 6:30 51.5 μS/cm 25/06/2019 6:30 Not measured Full data
River Gauge Albury (Union Bridge) Murray 1.11 m 25/06/2019 6:30 Not measured Not measured Not measured 7.9°C 25/06/2019 6:30 50.1 μS/cm 25/06/2019 6:30 Not measured Full data
River Gauge Corowa Murray 1.4 m 25/06/2019 6:30 4904 ML/Day 25/06/2019 6:30 Not measured Not measured 7.2°C 25/06/2019 6:30 50.0 μS/cm 25/06/2019 6:30 Not measured Full data
Weirs Yarrawonga Weir Upstream Murray 124.72 m 25/06/2019 6:00 Not measured Not measured Not measured Not measured Not measured 0.2 mm 24/06/2019 9:00 Full data
Weirs Yarrawonga Weir Downstream Murray 1.16 m 25/06/2019 6:30 6520 ML/Day 25/06/2019 6:30 Not measured Not measured 9.5°C 25/06/2019 6:30 46.2 μS/cm 25/06/2019 6:30 Not measured Full data
River Gauge Yarrawonga Main Channel Murray 122.92 m 17/06/2019 2:45 Not measured Not measured 50.0 ML/d24/06/2019 7:45 Not measured Not measured Not measured Full data
River Gauge Mulwala Canal Murray Not measured Not measured Not measured 0.0 ML/d24/06/2019 8:45 Not measured Not measured Not measured Full data
River Gauge Tocumwal Murray 1.75 m 25/06/2019 5:45 6672 ML/Day 25/06/2019 5:45 Not measured Not measured 8.6°C 25/06/2019 5:45 49.1 μS/cm 25/06/2019 5:45 Not measured Full data
River Gauge Edward River Offtake Murray 2.28 m 25/06/2019 6:00 1400 ML/Day 25/06/2019 6:00 Not measured Not measured 8.5°C 25/06/2019 5:45 53.1 μS/cm 25/06/2019 5:45 Not measured Full data
River Gauge Gulpa Creek Offtake Murray 2.24 m 25/06/2019 5:45 238 ML/Day 25/06/2019 5:45 Not measured Not measured Not measured Not measured Not measured Full data
River Gauge Echuca Wharf Murray 86.39 m 25/06/2019 3:45 Not measured Not measured Not measured Not measured Not measured Not measured Full data
Weirs Torrumbarry Weir Downstream Murray 1.91 m 25/06/2019 5:45 5223 ML/Day 25/06/2019 5:45 Not measured Not measured 9.3°C 25/06/2019 5:45 83.6 μS/cm 25/06/2019 5:45 Not measured Full data
Weirs Torrumbarry Weir Upstream Murray 85.75 m 25/06/2019 5:30 Not measured 34 GL 24/06/2019 8:45 Not measured 9.6°C 24/06/2019 8:45 83.6 μS/cm 25/06/2019 4:45 0.0 mm 23/06/2019 9:00 Full data
River Gauge Torrumbarry Headworks Murray 84.03 m 20/06/2019 5:00 Not measured Not measured 476.1 ML/d25/06/2019 6:00 Not measured Not measured Not measured Full data
River Gauge Stoney Crossing Murray 1.39 m 25/06/2019 5:45 417 ML/Day 25/06/2019 5:45 Not measured 411.7 ML/d24/06/2019 7:45 8.9°C 25/06/2019 5:45 208.7 μS/cm 25/06/2019 5:45 Not measured Full data
River Gauge Swan Hill Murray 1.05 m 25/06/2019 5:45 4881 ML/Day 25/06/2019 5:45 Not measured Not measured 8.4°C 25/06/2019 5:45 72.4 μS/cm 25/06/2019 5:45 Not measured Full data
River Gauge Wakool Junction Murray 2.45 m 25/06/2019 5:45 5703 ML/Day 25/06/2019 5:45 Not measured Not measured 8.8°C 25/06/2019 5:45 85.5 μS/cm 25/06/2019 5:45 Not measured Full data
Weirs Euston Weir Upstream Murray 47.34 m 24/06/2019 8:45 Not measured 33 GL 24/06/2019 7:45 Not measured Not measured Not measured 0.0 mm 21/02/2019 9:00 Full data
Weirs Euston Weir Downstream Murray 43.19 m 25/06/2019 5:45 7123 ML/Day 25/06/2019 5:45 Not measured Not measured 10.0°C 25/06/2019 5:45 89.2 μS/cm 25/06/2019 5:45 Not measured Full data
River Gauge Colignan Murray 1.88 m 25/06/2019 5:45 6264 ML/Day 25/06/2019 5:45 Not measured Not measured 9.7°C 25/06/2019 5:45 92.1 μS/cm 25/06/2019 5:45 Not measured Full data
Weirs Mildura Weir downstream Murray 30.98 m 25/06/2019 5:45 Not measured Not measured Not measured 10.6°C 25/06/2019 5:45 125.5 μS/cm 25/06/2019 5:45 Not measured Full data
Weirs Lock 9 Downstream Murray 24.19 m 25/06/2019 4:45 Not measured Not measured Not measured Not measured Not measured Not measured Full data
Weirs Lock 9 Upstream Murray 27.29 m 25/06/2019 4:45 Not measured Not measured Not measured 11.0°C 25/06/2019 4:45 96.6 μS/cm 24/06/2019 17:00 Not measured Full data
Weirs Lock 8 Upstream Murray 24.19 m 25/06/2019 4:45 Not measured Not measured Not measured 11.4°C 25/06/2019 4:45 100.8 μS/cm 25/06/2019 4:45 Not measured Full data
River Gauge Frenchman Creek Murray 27.24 m 24/06/2019 7:45 Not measured Not measured 3083.5 ML/d24/06/2019 7:45 Not measured Not measured Not measured Full data
Storage Lake Victoria Murray 23.25 m 25/06/2019 4:45 Not measured 270 GL 25/06/2019 4:45 Not measured 10.2°C 25/06/2019 4:45 150.6 μS/cm 25/06/2019 4:45 Not measured Full data
River Gauge Rufus River Murray 20.3 m 24/06/2019 7:45 Not measured Not measured 1835.0 ML/d24/06/2019 7:45 Not measured 139.4 μS/cm 25/06/2019 3:45 Not measured Full data
Weirs Lock 7 Downstream Murray 19.85 m 25/06/2019 4:45 Not measured Not measured Not measured Not measured Not measured Not measured Full data
Weirs Lock 7 Upstream Murray 21.97 m 25/06/2019 4:45 Not measured Not measured Not measured 10.9°C 25/06/2019 4:45 99.5 μS/cm 25/06/2019 4:45 Not measured Full data
River Gauge Flow to South Australia Murray Not measured Not measured Not measured 4224.9 ML/d24/06/2019 7:45 Not measured Not measured Not measured Full data
Weirs Lock 6 Downstream Murray 16.31 m 25/06/2019 4:45 Not measured Not measured Not measured Not measured Not measured Not measured Full data
Weirs Lock 6 Upstream Murray 19.23 m 25/06/2019 4:45 Not measured Not measured Not measured 11.3°C 25/06/2019 4:45 152.0 μS/cm 25/06/2019 4:45 Not measured Full data
Weirs Lock 5 Downstream Murray 13.3 m 25/06/2019 4:45 Not measured Not measured Not measured Not measured Not measured Not measured Full data
Weirs Lock 5 Upstream Murray 16.32 m 25/06/2019 4:45 Not measured Not measured Not measured 11.1°C 25/06/2019 4:45 181.1 μS/cm 25/06/2019 4:45 Not measured Full data
Weirs Lock 4 Downstream Murray 10.25 m 25/06/2019 4:45 Not measured Not measured Not measured Not measured Not measured Not measured Full data
Weirs Lock 4 Upstream Murray 13.23 m 25/06/2019 4:45 Not measured Not measured Not measured Not measured Not measured Not measured Full data
Weirs Lock 3 Downstream Murray 6.28 m 25/06/2019 4:45 Not measured Not measured Not measured Not measured Not measured Not measured Full data
Weirs Lock 3 Upstream Murray 9.87 m 25/06/2019 4:45 Not measured Not measured Not measured Not measured Not measured Not measured Full data
Weirs Lock 2 Downstream Murray 3.32 m 25/06/2019 4:45 Not measured Not measured Not measured Not measured Not measured Not measured Full data
Weirs Lock 2 Upstream Murray 6.14 m 25/06/2019 4:45 Not measured Not measured Not measured 11.1°C 25/06/2019 4:45 317.7 μS/cm 25/06/2019 4:45 Not measured Full data
River Gauge Morgan Downstream Murray Not measured Not measured Not measured 3115.0 ML/d25/06/2019 4:45 Not measured 328.3 μS/cm 25/06/2019 3:45 Not measured Full data
Weirs Lock 1 Downstream Murray 0.61 m 25/06/2019 4:45 Not measured Not measured 3866.2 ML/d24/06/2019 7:45 Not measured Not measured Not measured Full data
Weirs Lock 1 Upstream Murray 3.23 m 25/06/2019 4:45 Not measured Not measured Not measured 11.2°C 25/06/2019 4:45 309.6 μS/cm 25/06/2019 4:45 Not measured Full data
River Gauge Murray Bridge Murray 0.58 m 25/06/2019 4:45 Not measured Not measured Not measured 11.6°C 25/06/2019 4:45 255.5 μS/cm 25/06/2019 4:45 Not measured Full data
River Gauge Lake Alexandrina Murray 0.63 m 25/06/2019 5:45 Not measured 1532 GL 25/06/2019 5:45 Not measured Not measured 968.4 μS/cm 25/06/2019 4:45 Not measured Full data
River Gauge Lake Albert Murray 0.7 m 25/06/2019 5:45 Not measured 262 GL 25/06/2019 5:45 Not measured Not measured Not measured Not measured Full data
River Gauge Tauwitchere Barrage Murray 0.67 m 25/06/2019 4:45 Not measured Not measured Not measured Not measured Not measured Not measured Full data
River Gauge Mundoo Barrage Murray 0.72 m 24/06/2019 7:45 Not measured Not measured Not measured Not measured Not measured Not measured Full data
Weirs Wentworth Weir Murray 27.52 m 25/06/2019 5:45 Not measured Not measured 5064.0 ML/d24/06/2019 8:45 Not measured 108.0 μS/cm 24/06/2019 7:45 0.0 mm 31/01/2019 9:00 Full data
River Gauge Balranald Murrumbidgee 1.54 m 25/06/2019 4:45 1122 ML/Day 25/06/2019 4:45 Not measured Not measured 9.2°C 25/06/2019 4:45 162.9 μS/cm 25/06/2019 4:45 Not measured Full data
River Gauge Peechelba Ovens 127.39 m 25/06/2019 5:45 1952 ML/Day 25/06/2019 5:45 Not measured Not measured 6.8°C 25/06/2019 5:45 43.2 μS/cm 25/06/2019 5:45 Not measured Full data
River Gauge Edward Escape Wakool -0.08 m 24/06/2019 11:45 5 ML/Day 4/06/2019 19:15 Not measured Not measured 9.2°C 25/06/2019 5:45 76.0 μS/cm 25/06/2019 5:45 Not measured Full data
Weirs Steven's Weir Upstream Wakool 3.94 m 25/06/2019 6:00 Not measured Not measured Not measured Not measured Not measured Not measured Full data
Weirs Steven's Weir Downstream Wakool 1.37 m 25/06/2019 5:45 1121 ML/Day 25/06/2019 5:45 Not measured Not measured 8.7°C 25/06/2019 5:45 55.6 μS/cm 25/06/2019 5:45 Not measured Full data
River Gauge Wakool Canal Wakool -0.06 m 25/06/2019 5:45 Not measured Not measured 0.0 ML/d24/06/2019 8:45 Not measured Not measured Not measured Full data